Time;durP1;ratioP1;P1;durP2;ratioP2;P2;SDS_P1;SDS_P2;PMS_P1;PMS_P2;Temp;Humidity;BMP_temperature;BMP_pressure;BME280_temperature;BME280_humidity;BME280_pressure;Samples;Min_cycle;Max_cycle;Signal;HPM_P1;HPM_P2
2023/01/28 00:01:10;;;;;;;76.80;32.17;;;;;;;-1.71;100.00;98981.22;4974730;28;20348;-54
2023/01/28 00:03:38;;;;;;;76.83;32.03;;;;;;;-1.70;100.00;98982.09;4989211;28;20656;-55
2023/01/28 00:06:06;;;;;;;76.83;31.80;;;;;;;-1.63;100.00;98981.50;4974320;28;20289;-54
2023/01/28 00:08:33;;;;;;;77.80;32.17;;;;;;;-1.79;100.00;98965.03;4972855;28;20500;-53
2023/01/28 00:11:00;;;;;;;74.60;31.53;;;;;;;-1.66;100.00;98983.91;4978502;28;20282;-52
2023/01/28 00:13:26;;;;;;;76.57;32.17;;;;;;;-1.67;100.00;98979.69;4971170;28;20112;-53
2023/01/28 00:15:56;;;;;;;75.67;31.77;;;;;;;-1.63;100.00;98989.03;4972043;28;20501;-58
2023/01/28 00:18:22;;;;;;;76.03;31.93;;;;;;;-1.67;100.00;98988.06;4970750;28;20050;-56
2023/01/28 00:21:10;;;;;;;77.43;32.47;;;;;;;-1.65;100.00;98983.94;4971912;28;20428;-58
2023/01/28 00:23:37;;;;;;;76.77;31.93;;;;;;;-1.70;100.00;98982.09;4970104;28;20050;-57
2023/01/28 00:26:07;;;;;;;76.80;32.17;;;;;;;-1.84;100.00;98953.97;4971340;28;20331;-57
2023/01/28 00:28:33;;;;;;;76.87;32.13;;;;;;;-1.68;100.00;98982.97;4985333;28;20289;-57
2023/01/28 00:31:09;;;;;;;76.13;32.17;;;;;;;-1.58;100.00;98980.84;4971681;28;20745;-56
2023/01/28 00:33:35;;;;;;;77.90;32.27;;;;;;;-1.66;100.00;98983.91;4970570;28;20120;-55
2023/01/28 00:36:03;;;;;;;77.90;32.10;;;;;;;-1.65;100.00;98983.94;4972609;28;20413;-55
2023/01/28 00:38:28;;;;;;;76.93;31.80;;;;;;;-1.69;100.00;98972.06;4971817;28;20297;-57
2023/01/28 00:40:55;;;;;;;77.30;32.00;;;;;;;-1.68;100.00;98976.31;4972031;28;20290;-57
2023/01/28 00:43:22;;;;;;;78.00;32.43;;;;;;;-1.69;100.00;98982.13;4986794;28;20031;-58
2023/01/28 00:45:47;;;;;;;77.87;32.33;;;;;;;-1.64;100.00;98979.78;4970845;28;20296;-59
2023/01/28 00:48:13;;;;;;;76.33;31.70;;;;;;;-1.76;100.00;98954.22;4970803;28;20078;-56
2023/01/28 00:50:39;;;;;;;76.47;32.20;;;;;;;-1.70;100.00;98974.56;4971475;28;20044;-58
2023/01/28 00:53:05;;;;;;;75.90;31.73;;;;;;;-1.62;100.00;98965.63;4969245;28;20476;-57
2023/01/28 00:55:30;;;;;;;76.00;32.07;;;;;;;-1.67;100.00;98972.13;4972590;28;20285;-58
2023/01/28 00:57:56;;;;;;;76.07;32.00;;;;;;;-1.67;100.00;98969.63;4971350;28;20054;-58
2023/01/28 01:00:26;;;;;;;75.33;31.73;;;;;;;-1.61;100.00;98964.81;4971754;28;20458;-57
2023/01/28 01:02:52;;;;;;;76.03;32.17;;;;;;;-1.82;100.00;98938.97;4984282;28;20042;-56
2023/01/28 01:05:17;;;;;;;75.53;32.10;;;;;;;-1.61;100.00;98974.88;4970067;28;20355;-55
2023/01/28 01:07:43;;;;;;;75.57;31.97;;;;;;;-1.78;100.00;98943.28;4970234;28;20054;-60
2023/01/28 01:10:15;;;;;;;76.07;32.13;;;;;;;-1.71;100.00;98970.31;4986969;28;20474;-58
2023/01/28 01:12:41;;;;;;;75.57;32.00;;;;;;;-1.67;100.00;98974.66;4970584;28;20296;-54
2023/01/28 01:15:09;;;;;;;75.67;31.67;;;;;;;-1.59;100.00;98983.31;4970070;28;20326;-59
2023/01/28 01:17:39;;;;;;;74.50;32.03;;;;;;;-1.78;100.00;98960.88;4970855;28;20142;-57
2023/01/28 01:20:08;;;;;;;73.57;31.80;;;;;;;-1.61;100.00;98993.28;4971166;28;20446;-56
2023/01/28 01:22:35;;;;;;;74.40;31.70;;;;;;;-1.56;100.00;98989.28;4972577;28;20565;-56
2023/01/28 01:25:03;;;;;;;74.27;31.73;;;;;;;-1.57;100.00;98986.75;4969678;28;20882;-56
2023/01/28 01:27:29;;;;;;;75.13;31.87;;;;;;;-1.59;100.00;98983.31;4970870;28;20622;-55
2023/01/28 01:29:57;;;;;;;75.07;31.80;;;;;;;-1.55;100.00;98990.16;4983598;28;20042;-57
2023/01/28 01:32:24;;;;;;;75.10;31.57;;;;;;;-1.58;100.00;98990.06;4969740;28;20061;-56
2023/01/28 01:34:50;;;;;;;74.67;32.03;;;;;;;-1.56;100.00;99001.84;4969549;28;20049;-55
2023/01/28 01:37:16;;;;;;;75.83;32.33;;;;;;;-1.64;100.00;98975.59;4971027;28;20039;-56
2023/01/28 01:39:41;;;;;;;74.47;31.50;;;;;;;-1.56;100.00;98996.81;4973825;28;20039;-57
2023/01/28 01:42:12;;;;;;;76.13;31.87;;;;;;;-1.53;100.00;98999.44;4985942;28;20204;-57
2023/01/28 01:45:02;;;;;;;75.87;31.87;;;;;;;-1.53;100.00;99009.50;4971975;28;20043;-58
2023/01/28 01:47:35;;;;;;;74.37;32.20;;;;;;;-1.63;100.00;98977.31;4981564;28;20055;-55
2023/01/28 01:50:20;;;;;;;74.07;32.20;;;;;;;-1.72;100.00;98971.13;4967652;28;20263;-58
2023/01/28 01:52:49;;;;;;;73.57;32.30;;;;;;;-1.49;100.00;98997.91;4970048;28;20046;-57
2023/01/28 01:55:20;;;;;;;72.70;31.50;;;;;;;-1.70;100.00;98972.91;4970343;28;20046;-57
2023/01/28 01:57:50;;;;;;;74.20;31.77;;;;;;;-1.66;100.00;98987.28;4969681;28;20517;-56
2023/01/28 02:00:17;;;;;;;74.80;31.83;;;;;;;-1.72;100.00;98971.13;4986446;28;20046;-58
2023/01/28 02:02:48;;;;;;;80.55;33.00;;;;;;;-1.53;100.00;98996.94;4984599;28;20042;-55
2023/01/28 02:05:17;;;;;;;80.57;32.77;;;;;;;-1.67;100.00;98974.66;4970788;28;20153;-56
2023/01/28 02:07:45;;;;;;;83.30;33.37;;;;;;;-1.71;100.00;98970.31;4983772;28;20286;-55
2023/01/28 02:10:13;;;;;;;82.53;33.33;;;;;;;-1.72;100.00;98971.13;4970470;28;20352;-55
2023/01/28 02:12:52;;;;;;;82.80;33.33;;;;;;;-1.57;100.00;99009.38;4970970;28;20069;-57
2023/01/28 02:15:20;;;;;;;83.73;33.63;;;;;;;-1.71;100.00;98980.38;4971670;28;20644;-53
2023/01/28 02:17:48;;;;;;;80.70;32.83;;;;;;;-1.61;100.00;99005.88;4973571;28;20298;-55
2023/01/28 02:20:40;;;;;;;80.87;32.97;;;;;;;-1.51;100.00;99012.06;4973787;28;20288;-56
2023/01/28 02:23:12;;;;;;;80.03;32.83;;;;;;;-1.52;100.00;99008.69;5000827;28;20339;-56
2023/01/28 02:25:56;;;;;;;81.17;33.37;;;;;;;-1.54;100.00;99004.44;5000409;28;20384;-58
2023/01/28 02:28:43;;;;;;;80.13;32.90;;;;;;;-1.68;100.00;98970.41;4984460;28;20363;-57
2023/01/28 02:31:18;;;;;;;77.63;31.83;;;;;;;-1.68;100.00;98968.75;4985111;28;21285;-57
2023/01/28 02:33:55;;;;;;;78.07;32.40;;;;;;;-1.67;100.00;98979.69;4984606;28;20297;-58
2023/01/28 02:36:32;;;;;;;77.27;32.37;;;;;;;-1.55;100.00;99005.22;4984353;28;20362;-60
2023/01/28 02:39:05;;;;;;;76.90;32.00;;;;;;;-1.52;100.00;99003.66;4975466;28;20342;-57
2023/01/28 02:41:39;;;;;;;77.07;32.10;;;;;;;-1.69;100.00;98983.78;5001245;28;20320;-56
2023/01/28 02:44:05;;;;;;;76.17;32.20;;;;;;;-1.58;100.00;98993.44;5001011;28;20304;-58
2023/01/28 02:49:38;;;;;;;75.90;32.17;;;;;;;-1.65;100.00;98978.06;5000429;28;20132;-58
2023/01/28 02:56:10;;;;;;;75.70;32.20;;;;;;;-1.53;100.00;98991.91;4926371;29;20150;-54
2023/01/28 02:58:45;;;;;;;75.43;31.90;;;;;;;-1.73;100.00;98964.38;4942532;28;20511;-57
2023/01/28 03:01:25;;;;;;;75.13;32.03;;;;;;;-1.55;100.00;99006.09;4923867;29;20349;-59
2023/01/28 03:03:56;;;;;;;72.80;31.30;;;;;;;-1.60;100.00;99001.69;4923553;29;20086;-54
2023/01/28 03:06:38;;;;;;;74.07;31.80;;;;;;;-1.73;100.00;98977.81;4922666;29;20059;-55
2023/01/28 03:09:22;;;;;;;75.00;32.30;;;;;;;-1.60;100.00;98999.19;4922802;29;20063;-56
2023/01/28 03:37:06;;;;;;;77.33;32.00;;;;;;;-1.82;100.00;99009.31;4986739;28;20425;-55
2023/01/28 03:39:36;;;;;;;76.00;31.40;;;;;;;-1.82;100.00;99004.28;4969170;28;20290;-58
2023/01/28 03:42:13;;;;;;;75.27;31.53;;;;;;;-1.87;100.00;98994.06;4986036;28;20050;-57
2023/01/28 03:44:56;;;;;;;74.73;31.53;;;;;;;-1.76;100.00;99010.38;4987134;28;20486;-56
2023/01/28 03:47:25;;;;;;;75.17;31.97;;;;;;;-1.86;100.00;99011.69;4973682;28;20047;-57
2023/01/28 03:49:53;;;;;;;75.00;31.43;;;;;;;-1.81;100.00;99001.81;4980641;28;20109;-57
2023/01/28 03:52:23;;;;;;;75.30;31.17;;;;;;;-1.87;100.00;99009.16;4971890;28;20518;-55
2023/01/28 03:54:51;;;;;;;76.57;31.57;;;;;;;-1.86;100.00;99013.34;4981277;28;20572;-55
2023/01/28 03:57:21;;;;;;;76.50;31.60;;;;;;;-1.91;100.00;99013.19;4975263;28;20038;-56
2023/01/28 03:59:48;;;;;;;75.13;31.73;;;;;;;-1.90;100.00;99014.91;4986974;28;20125;-56
2023/01/28 04:02:16;;;;;;;74.97;31.47;;;;;;;-2.02;100.00;98989.34;4979928;28;20692;-54
2023/01/28 04:04:42;;;;;;;73.70;30.80;;;;;;;-1.97;100.00;99018.00;4987755;28;20038;-53
2023/01/28 04:07:11;;;;;;;75.97;32.07;;;;;;;-2.00;100.00;99009.50;4971320;28;20725;-55
2023/01/28 04:09:55;;;;;;;74.97;31.57;;;;;;;-2.02;100.00;99011.94;4972448;28;20054;-56
2023/01/28 04:12:40;;;;;;;74.33;31.60;;;;;;;-2.03;100.00;99015.25;4973438;28;20601;-56
2023/01/28 04:15:14;;;;;;;74.63;31.43;;;;;;;-2.17;100.00;98993.81;4987194;28;20556;-54
2023/01/28 04:17:45;;;;;;;73.23;31.37;;;;;;;-2.18;100.00;98994.59;4971079;28;20054;-55
2023/01/28 04:20:16;;;;;;;73.70;31.30;;;;;;;-2.02;100.00;99016.09;4985562;28;20043;-54
2023/01/28 04:22:42;;;;;;;74.83;31.53;;;;;;;-2.10;100.00;98985.69;4987190;28;20049;-54
2023/01/28 04:25:09;;;;;;;75.53;31.83;;;;;;;-1.97;100.00;99012.13;4986606;28;20070;-58
2023/01/28 04:27:35;;;;;;;75.40;31.33;;;;;;;-1.99;100.00;99012.03;4974908;28;20056;-56
2023/01/28 04:30:10;;;;;;;75.30;31.73;;;;;;;-1.99;100.00;99017.06;4971188;28;20082;-56
2023/01/28 04:32:42;;;;;;;74.13;31.63;;;;;;;-1.96;100.00;99013.84;4986350;28;20078;-59
2023/01/28 04:35:31;;;;;;;75.17;31.53;;;;;;;-2.01;100.00;99011.16;4974884;28;20285;-55
2023/01/28 04:38:05;;;;;;;75.43;32.17;;;;;;;-1.95;100.00;99018.88;4980754;28;20497;-55
2023/01/28 04:40:56;;;;;;;74.90;31.70;;;;;;;-1.97;100.00;99017.13;4982031;28;20070;-57
2023/01/28 04:43:25;;;;;;;74.20;31.53;;;;;;;-2.04;100.00;99018.59;4969093;28;20062;-56
2023/01/28 04:46:15;;;;;;;73.93;31.10;;;;;;;-2.13;100.00;99005.69;4959208;28;20139;-58
2023/01/28 04:49:02;;;;;;;72.13;30.67;;;;;;;-2.16;100.00;98995.50;4985126;28;20079;-58
2023/01/28 04:51:31;;;;;;;73.03;31.03;;;;;;;-2.03;100.00;99024.44;4970853;28;20504;-54
2023/01/28 04:54:16;;;;;;;73.53;31.13;;;;;;;-1.93;100.00;99029.88;4971532;28;20145;-55
2023/01/28 04:56:42;;;;;;;74.00;31.50;;;;;;;-1.94;100.00;99038.19;4971391;28;20506;-56
2023/01/28 04:59:08;;;;;;;72.90;30.90;;;;;;;-2.16;100.00;99004.69;4987269;28;20061;-54
2023/01/28 05:01:34;;;;;;;73.60;31.57;;;;;;;-1.95;100.00;99038.13;4969896;28;20133;-56
2023/01/28 05:04:04;;;;;;;73.47;31.47;;;;;;;-1.94;100.00;99044.88;4973315;28;20481;-55
2023/01/28 05:06:31;;;;;;;73.37;31.47;;;;;;;-2.05;100.00;99005.97;4969221;28;20382;-55
2023/01/28 05:09:01;;;;;;;73.23;31.50;;;;;;;-1.88;100.00;99040.09;4971248;28;20046;-56
2023/01/28 05:11:28;;;;;;;73.83;31.63;;;;;;;-1.85;100.00;99046.06;4975264;28;20042;-58
2023/01/28 05:13:58;;;;;;;73.73;31.63;;;;;;;-2.00;100.00;99017.03;4988805;28;20077;-56
2023/01/28 05:16:30;;;;;;;73.30;31.47;;;;;;;-1.93;100.00;99034.03;4973136;28;20134;-59
2023/01/28 05:18:56;;;;;;;73.40;31.50;;;;;;;-1.97;100.00;99025.53;4984354;28;20118;-56
2023/01/28 05:21:22;;;;;;;74.17;32.00;;;;;;;-1.85;100.00;99036.03;4982818;28;20066;-55
2023/01/28 05:23:54;;;;;;;72.93;31.30;;;;;;;-1.87;100.00;99032.59;4987638;28;20038;-55
2023/01/28 05:26:20;;;;;;;72.93;31.87;;;;;;;-1.87;100.00;99030.06;4973032;28;20180;-58
2023/01/28 05:28:46;;;;;;;72.90;31.60;;;;;;;-1.85;100.00;99040.19;4985929;28;20402;-56
2023/01/28 05:31:11;;;;;;;72.57;31.40;;;;;;;-1.87;100.00;99040.13;4972844;28;20383;-64
2023/01/28 05:33:37;;;;;;;72.47;31.47;;;;;;;-1.86;100.00;99043.50;4986647;28;20466;-55
2023/01/28 05:36:06;;;;;;;72.53;31.77;;;;;;;-1.79;100.00;99029.50;4973759;28;20055;-56
2023/01/28 05:38:32;;;;;;;72.60;31.60;;;;;;;-2.01;100.00;99002.75;4984333;28;20060;-56
2023/01/28 05:40:58;;;;;;;72.27;31.50;;;;;;;-2.02;100.00;99013.59;4971647;28;20569;-61
2023/01/28 05:43:23;;;;;;;71.40;30.90;;;;;;;-1.89;100.00;99041.72;4972932;28;20042;-55
2023/01/28 05:46:12;;;;;;;72.10;31.60;;;;;;;-1.90;100.00;99027.47;4972457;28;20038;-55
2023/01/28 05:49:16;;;;;;;67.15;30.88;;;;;;;-1.98;100.00;99016.28;4977526;28;20054;-55
2023/01/28 05:52:01;;;;;;;68.18;30.95;;;;;;;-1.90;100.00;99037.50;4979386;28;20120;-55
2023/01/28 05:54:29;;;;;;;68.75;31.48;;;;;;;-1.98;100.00;99026.31;4963065;28;20441;-55
2023/01/28 05:56:55;;;;;;;66.40;30.42;;;;;;;-1.87;100.00;99042.63;4981233;28;20057;-57
2023/01/28 05:59:21;;;;;;;67.32;30.77;;;;;;;-1.90;100.00;99035.00;4964454;28;20030;-56
2023/01/28 06:01:49;;;;;;;69.18;31.20;;;;;;;-1.89;100.00;99049.28;4962793;28;20514;-56
2023/01/28 06:04:17;;;;;;;67.03;30.50;;;;;;;-2.08;100.00;99016.72;4978808;28;20053;-53
2023/01/28 06:06:44;;;;;;;67.25;30.52;;;;;;;-1.91;100.00;99047.50;4978484;28;20046;-53
2023/01/28 06:09:10;;;;;;;66.50;30.40;;;;;;;-1.81;100.00;99058.72;4978424;28;20050;-58
2023/01/28 06:11:35;;;;;;;66.43;30.35;;;;;;;-1.87;100.00;99047.66;4963051;28;20039;-56
2023/01/28 06:14:03;;;;;;;67.03;30.90;;;;;;;-1.83;100.00;99055.31;4941642;28;20070;-58
2023/01/28 06:16:46;;;;;;;66.55;30.67;;;;;;;-1.85;100.00;99051.09;4976225;28;20141;-56
2023/01/28 06:19:44;;;;;;;66.70;30.35;;;;;;;-1.85;100.00;99053.59;4943843;28;20478;-56
2023/01/28 06:22:09;;;;;;;66.68;30.85;;;;;;;-1.98;100.00;99033.00;4977781;28;20101;-55
2023/01/28 06:24:35;;;;;;;67.65;30.60;;;;;;;-1.75;100.00;99053.94;4969841;28;20034;-58
2023/01/28 06:27:01;;;;;;;68.72;30.95;;;;;;;-1.75;100.00;99061.47;4968803;28;20057;-57
2023/01/28 06:29:27;;;;;;;67.28;30.65;;;;;;;-1.93;100.00;99041.56;4983569;28;20059;-56
2023/01/28 06:31:52;;;;;;;67.32;31.13;;;;;;;-1.81;100.00;99064.63;4968960;28;20157;-58
2023/01/28 06:34:18;;;;;;;67.75;30.90;;;;;;;-1.89;100.00;99048.41;4969977;28;20097;-55
2023/01/28 06:36:44;;;;;;;69.57;31.45;;;;;;;-1.75;100.00;99074.91;4967929;28;20185;-55
2023/01/28 06:39:10;;;;;;;68.57;30.80;;;;;;;-1.92;100.00;99049.16;4970951;28;20546;-55
2023/01/28 06:41:36;;;;;;;67.93;30.27;;;;;;;-1.76;100.00;99077.34;4968149;28;20467;-55
2023/01/28 06:44:02;;;;;;;70.80;31.48;;;;;;;-1.72;100.00;99079.19;4984511;28;20046;-57
2023/01/28 06:46:27;;;;;;;69.90;30.63;;;;;;;-1.71;100.00;99083.41;4965179;28;20038;-54
2023/01/28 06:48:53;;;;;;;70.43;31.10;;;;;;;-1.70;100.00;99080.97;4983365;28;20741;-53
2023/01/28 06:51:18;;;;;;;69.90;30.90;;;;;;;-1.68;100.00;99081.00;4967221;28;20042;-55
2023/01/28 06:53:44;;;;;;;71.00;31.27;;;;;;;-1.68;100.00;99093.56;4970659;28;20092;-54
2023/01/28 06:56:10;;;;;;;71.20;31.10;;;;;;;-1.72;100.00;99084.19;4968034;28;20747;-54
2023/01/28 06:58:35;;;;;;;70.65;30.92;;;;;;;-1.79;100.00;99072.22;4968652;28;20116;-55
2023/01/28 07:01:02;;;;;;;72.30;31.30;;;;;;;-1.67;100.00;99093.63;4966788;28;20046;-56
2023/01/28 07:03:28;;;;;;;72.30;31.52;;;;;;;-1.71;100.00;99076.72;4970359;28;20042;-55
2023/01/28 07:05:54;;;;;;;70.18;30.98;;;;;;;-1.69;100.00;99101.91;4970388;28;20053;-55
2023/01/28 07:08:20;;;;;;;71.03;30.75;;;;;;;-1.55;100.00;99095.72;4972852;28;20234;-62
2023/01/28 07:10:50;;;;;;;73.40;31.60;;;;;;;-1.54;100.00;99097.44;4969173;28;20151;-56
2023/01/28 07:13:16;;;;;;;73.37;31.70;;;;;;;-1.60;100.00;99104.75;4980312;28;20057;-59
2023/01/28 07:15:41;;;;;;;73.23;31.57;;;;;;;-1.60;100.00;99103.09;4974045;28;20038;-58
2023/01/28 07:18:07;;;;;;;71.50;31.48;;;;;;;-1.89;100.00;99071.88;4971628;28;20709;-57
2023/01/28 07:20:33;;;;;;;73.83;32.00;;;;;;;-1.72;100.00;99104.31;4975057;28;20391;-58
2023/01/28 07:22:59;;;;;;;73.93;32.07;;;;;;;-1.85;100.00;99076.22;4969437;28;20058;-57
2023/01/28 07:25:24;;;;;;;73.63;32.07;;;;;;;-1.87;100.00;99079.50;4983180;28;20128;-54
2023/01/28 07:27:52;;;;;;;73.90;31.70;;;;;;;-1.73;100.00;99110.97;4987085;28;20129;-55
2023/01/28 07:30:19;;;;;;;73.63;31.73;;;;;;;-1.65;100.00;99104.56;4971292;28;20104;-57
2023/01/28 07:32:45;;;;;;;73.87;31.77;;;;;;;-1.64;100.00;99097.91;4966672;28;20045;-58
2023/01/28 07:35:11;;;;;;;73.13;31.70;;;;;;;-1.58;100.00;99105.69;4969532;28;21032;-56
2023/01/28 07:37:37;;;;;;;73.53;31.70;;;;;;;-1.66;100.00;99094.50;4970575;28;20042;-55
2023/01/28 07:40:02;;;;;;;73.70;32.07;;;;;;;-1.69;100.00;99106.91;4970250;28;20375;-55
2023/01/28 07:42:28;;;;;;;74.40;32.20;;;;;;;-1.69;100.00;99107.78;4966966;28;20042;-57
2023/01/28 07:44:54;;;;;;;73.43;31.70;;;;;;;-1.66;100.00;99107.91;4980214;28;20053;-58
2023/01/28 07:47:19;;;;;;;73.73;32.10;;;;;;;-1.61;100.00;99101.38;4970533;28;20907;-58
2023/01/28 07:49:45;;;;;;;74.30;32.43;;;;;;;-1.55;100.00;99114.19;4968340;28;20047;-59
2023/01/28 07:52:11;;;;;;;74.53;32.30;;;;;;;-1.56;100.00;99125.03;4967782;28;20058;-54
2023/01/28 07:54:36;;;;;;;73.43;31.17;;;;;;;-1.50;100.00;99124.41;4974219;28;20056;-55
2023/01/28 07:57:08;;;;;;;74.93;31.90;;;;;;;-1.53;100.00;99130.16;4974160;28;20042;-56
2023/01/28 07:59:35;;;;;;;74.63;31.80;;;;;;;-1.48;100.00;99123.63;4970941;28;20146;-56
2023/01/28 08:02:00;;;;;;;75.03;32.07;;;;;;;-1.64;100.00;99107.94;4968882;28;20034;-58
2023/01/28 08:04:26;;;;;;;74.13;31.63;;;;;;;-1.46;100.00;99133.75;4969810;28;20065;-56
2023/01/28 08:06:51;;;;;;;74.20;31.63;;;;;;;-1.69;100.00;99116.97;4969924;28;20533;-57
2023/01/28 08:09:17;;;;;;;74.93;31.80;;;;;;;-1.56;100.00;99142.63;4969904;28;20062;-54
2023/01/28 08:11:43;;;;;;;74.50;31.43;;;;;;;-1.70;100.00;99122.81;4972526;28;20587;-57
2023/01/28 08:14:10;;;;;;;75.20;32.27;;;;;;;-1.46;100.00;99142.16;4970710;28;20042;-54
2023/01/28 08:16:35;;;;;;;74.47;32.10;;;;;;;-1.44;100.00;99145.56;4968394;28;20073;-54
2023/01/28 08:19:01;;;;;;;74.70;31.53;;;;;;;-1.42;100.00;99148.16;4968225;28;20897;-56
2023/01/28 08:21:27;;;;;;;74.23;31.60;;;;;;;-1.45;100.00;99143.03;4972089;28;20489;-52
2023/01/28 08:23:54;;;;;;;74.50;32.17;;;;;;;-1.34;100.00;99135.84;4970018;28;20162;-55
2023/01/28 08:26:19;;;;;;;75.10;32.20;;;;;;;-1.23;100.00;99148.00;4982726;28;20047;-55
2023/01/28 08:28:45;;;;;;;74.97;31.83;;;;;;;-1.12;100.00;99153.44;4969151;28;20087;-56
2023/01/28 08:31:11;;;;;;;75.33;32.10;;;;;;;-1.12;100.00;99148.41;4970890;28;20588;-55
2023/01/28 08:33:39;;;;;;;75.07;32.10;;;;;;;-1.25;100.00;99137.06;4968338;28;20149;-52
2023/01/28 08:36:05;;;;;;;73.33;31.47;;;;;;;-1.18;100.00;99156.56;4966363;28;20050;-55
2023/01/28 08:38:30;;;;;;;74.30;31.97;;;;;;;-1.15;100.00;99159.22;4969801;28;20489;-56
2023/01/28 08:40:57;;;;;;;75.10;32.47;;;;;;;-1.19;100.00;99159.88;4982522;28;20069;-56
2023/01/28 08:43:23;;;;;;;74.03;31.53;;;;;;;-1.17;100.00;99158.28;4969782;28;20205;-54
2023/01/28 08:45:49;;;;;;;74.57;32.17;;;;;;;-1.17;100.00;99159.94;4971265;28;20090;-53
2023/01/28 08:48:16;;;;;;;74.27;32.07;;;;;;;-1.16;100.00;99164.19;4967771;28;20064;-51
2023/01/28 08:50:42;;;;;;;73.87;32.13;;;;;;;-1.15;100.00;99153.34;4968126;28;20491;-56
2023/01/28 08:53:14;;;;;;;74.90;32.70;;;;;;;-1.08;100.00;99163.66;4966515;28;20157;-53
2023/01/28 08:55:40;;;;;;;74.97;32.47;;;;;;;-1.16;100.00;99136.53;4967296;28;20074;-56
2023/01/28 08:58:09;;;;;;;74.70;32.42;;;;;;;-0.94;100.00;99170.03;4966704;28;20129;-56
2023/01/28 09:00:35;;;;;;;62.80;30.30;;;;;;;-0.92;100.00;99167.56;4967521;28;20038;-60
2023/01/28 09:03:01;;;;;;;66.03;30.95;;;;;;;-0.85;100.00;99171.16;4966592;28;20046;-54
2023/01/28 09:05:31;;;;;;;;;;;;;;;-0.83;100.00;99167.00;4968129;28;20133;-54
2023/01/28 09:08:04;;;;;;;104.03;37.03;;;;;;;-0.75;100.00;99168.13;4965848;28;20470;-55
2023/01/28 09:10:30;;;;;;;67.13;31.02;;;;;;;-0.82;100.00;99168.72;4969918;28;20038;-55
2023/01/28 09:12:55;;;;;;;;;;;;;;;-0.74;100.00;99184.94;4971027;28;20509;-52
2023/01/28 09:15:21;;;;;;;;;;;;;;;-0.65;100.00;99173.53;4972705;28;19922;-53
2023/01/28 09:17:46;;;;;;;77.20;32.25;;;;;;;-0.56;100.00;99180.56;4970826;28;19980;-54
2023/01/28 09:20:12;;;;;;;;;;;;;;;-0.71;100.00;99187.56;4971732;28;20054;-54
2023/01/28 09:22:38;;;;;;;93.67;35.43;;;;;;;-0.66;100.00;99166.78;4969056;28;20472;-54
2023/01/28 09:25:04;;;;;;;;;;;;;;;-0.59;100.00;99182.94;4970584;28;20042;-55
2023/01/28 09:27:30;;;;;;;;;;;;;;;-0.54;100.00;99187.34;4982120;28;19918;-55
2023/01/28 09:29:56;;;;;;;95.60;35.92;;;;;;;-0.61;100.00;99179.53;4965506;28;20448;-54
2023/01/28 09:32:23;;;;;;;63.90;30.00;;;;;;;-0.50;100.00;99179.06;4969279;28;20128;-53
2023/01/28 09:34:49;;;;;;;;;;;;;;;-0.38;100.00;99187.88;4969390;28;20101;-54
2023/01/28 09:37:16;;;;;;;95.73;35.97;;;;;;;-0.59;100.00;99156.09;4969039;28;21092;-58
2023/01/28 09:39:42;;;;;;;;;;;;;;;-0.30;100.00;99188.97;4985949;28;20977;-56
2023/01/28 09:42:13;;;;;;;;;;;;;;;-0.15;100.00;99202.03;4970337;28;19929;-55
2023/01/28 09:44:48;;;;;;;97.53;36.15;;;;;;;-0.20;100.00;99204.41;4967620;28;20473;-58
2023/01/28 09:47:37;;;;;;;;;;;;;;;-0.17;100.00;99193.59;4969761;28;20470;-57
2023/01/28 09:50:10;;;;;;;86.15;34.10;;;;;;;-0.24;100.00;99199.22;4971404;28;20496;-55
2023/01/28 09:52:38;;;;;;;;;;;;;;;-0.19;100.00;99188.50;4966745;28;20157;-54
2023/01/28 09:55:03;;;;;;;;;;;;;;;-0.19;100.00;99190.16;4966232;28;19921;-57
2023/01/28 09:57:41;;;;;;;;;;;;;;;-0.13;100.00;99191.19;4965328;28;19922;-56
2023/01/28 10:00:15;;;;;;;98.00;36.75;;;;;;;-0.18;100.00;99177.63;4965798;28;20458;-56
2023/01/28 10:02:48;;;;;;;;;;;;;;;-0.02;100.00;99179.81;4969756;28;20405;-56
2023/01/28 10:05:18;;;;;;;;;;;;;;;-0.17;100.00;99186.88;4969864;28;19965;-56
2023/01/28 10:08:22;;;;;;;87.55;34.42;;;;;;;-0.18;100.00;99182.66;4969742;28;20543;-57
2023/01/28 10:10:55;;;;;;;;;;;;;;;-0.13;100.00;99186.16;4968888;28;20046;-56
2023/01/28 10:13:29;;;;;;;;;;;;;;;0.00;100.00;99183.22;4970315;28;19922;-58
2023/01/28 10:16:13;;;;;;;;;;;;;;;-0.09;100.00;99182.97;4967782;28;19925;-57
2023/01/28 10:19:03;;;;;;;94.00;35.58;;;;;;;-0.13;100.00;99186.16;4965526;28;20506;-53
2023/01/28 10:21:38;;;;;;;;;;;;;;;-0.17;100.00;99181.00;4969473;28;20050;-57
2023/01/28 10:24:20;;;;;;;;;;;;;;;-0.29;100.00;99178.06;4970748;28;20451;-58
2023/01/28 10:26:46;;;;;;;95.45;35.85;;;;;;;-0.25;100.00;99170.66;4968011;28;20477;-60
2023/01/28 10:29:23;;;;;;;;;;;;;;;-0.26;100.00;99183.22;4983913;28;20138;-60
2023/01/28 10:31:58;;;;;;;;;;;;;;;-0.15;100.00;99176.84;4968691;28;19922;-59
2023/01/28 10:34:24;;;;;;;93.38;35.97;;;;;;;-0.48;100.00;99174.09;4967674;28;20565;-57
2023/01/28 10:36:50;;;;;;;;;;;;;;;-0.40;100.00;99180.25;4971619;28;20044;-61
2023/01/28 10:39:17;;;;;;;;;;;;;;;-0.39;100.00;99178.59;4973923;28;19922;-59
2023/01/28 10:41:42;;;;;;;;;;;;;;;-0.26;100.00;99179.03;4973501;28;20024;-57
2023/01/28 10:44:21;;;;;;;;;;;;;;;-0.15;100.00;99181.88;4974620;28;20326;-58
2023/01/28 10:46:47;;;;;;;;;;;;;;;-0.25;100.00;99178.22;4971097;28;20024;-58
2023/01/28 10:49:13;;;;;;;;;;;;;;;-0.29;100.00;99178.91;4970121;28;19925;-58
2023/01/28 10:51:40;;;;;;;;;;;;;;;-0.26;100.00;99181.56;4972715;28;20444;-59
2023/01/28 10:54:23;;;;;;;;;;;;;;;-0.27;100.00;99179.84;4986230;28;20344;-60
2023/01/28 10:56:53;;;;;;;92.28;35.30;;;;;;;-0.37;100.00;99164.38;4971664;28;20480;-59
2023/01/28 10:59:21;;;;;;;;;;;;;;;-0.35;100.00;99168.66;4973488;28;20066;-55
2023/01/28 11:01:51;;;;;;;;;;;;;;;-0.28;100.00;99174.75;4973315;28;20512;-62
2023/01/28 11:04:26;;;;;;;94.80;36.45;;;;;;;-0.24;100.00;99172.38;4969991;28;20485;-59
2023/01/28 11:06:56;;;;;;;;;;;;;;;-0.09;100.00;99169.50;4971437;28;20051;-60
2023/01/28 11:09:23;;;;;;;;;;;;;;;-0.08;100.00;99168.66;4969670;28;20048;-60
2023/01/28 11:11:49;;;;;;;101.00;37.22;;;;;;;0.08;100.00;99180.09;4967524;28;20501;-59
2023/01/28 11:14:21;;;;;;;;;;;;;;;0.04;100.00;99180.81;4972470;28;20047;-59
2023/01/28 11:16:48;;;;;;;;;;;;;;;0.17;100.00;99181.22;4972114;28;19972;-61
2023/01/28 11:19:14;;;;;;;;;;;;;;;0.07;100.00;99179.25;4970746;28;20389;-60
2023/01/28 11:21:47;;;;;;;98.60;37.47;;;;;;;0.07;100.00;99169.16;4967186;28;20519;-63
2023/01/28 11:24:15;;;;;;;;;;;;;;;0.14;100.00;99175.22;4971108;28;20392;-58
2023/01/28 11:26:48;;;;;;;;;;;;;;;0.02;100.00;99174.84;4972369;28;19922;-60
2023/01/28 11:29:21;;;;;;;;;;;;;;;0.20;100.00;99183.00;4970126;28;19926;-61
2023/01/28 11:31:47;;;;;;;;;;;;;;;0.07;100.00;99178.38;4969379;28;19969;-61
2023/01/28 11:34:16;;;;;;;;;;;;;;;0.03;100.00;99174.06;4972770;28;20055;-61
2023/01/28 11:36:48;;;;;;;;;;;;;;;-0.02;100.00;99179.81;4970636;28;20134;-60
2023/01/28 11:39:19;;;;;;;;;;;;;;;0.00;100.00;99174.84;4970645;28;19949;-60
2023/01/28 11:41:46;;;;;;;;;;;;;;;0.14;100.00;99170.19;4972024;28;19969;-61
2023/01/28 11:44:16;;;;;;;;;;;;;;;0.28;100.00;99181.56;4981250;28;20003;-60
2023/01/28 11:46:42;;;;;;;;;;;;;;;0.27;100.00;99178.19;4972196;28;19921;-59
2023/01/28 11:49:21;;;;;;;;;;;;;;;0.26;100.00;99168.03;4986263;28;19922;-62
2023/01/28 11:51:59;;;;;;;;;;;;;;;0.19;100.00;99171.19;4971422;28;20268;-61
2023/01/28 11:54:31;;;;;;;;;;;;;;;0.27;100.00;99172.28;4987018;28;19941;-60
2023/01/28 11:57:00;;;;;;;;;;;;;;;0.19;100.00;99174.56;4985573;28;19921;-62
2023/01/28 11:59:31;;;;;;;;;;;;;;;0.33;100.00;99169.97;4971102;28;19961;-60
2023/01/28 12:02:03;;;;;;;;;;;;;;;0.33;100.00;99170.81;4972469;28;19921;-60
2023/01/28 12:04:47;;;;;;;;;;;;;;;0.45;100.00;99168.66;4972111;28;19922;-59
2023/01/28 12:07:19;;;;;;;;;;;;;;;0.40;100.00;99166.78;4971808;28;20272;-60
2023/01/28 12:09:51;;;;;;;;;;;;;;;0.45;100.00;99170.31;4972484;28;19952;-59
2023/01/28 12:12:40;;;;;;;;;;;;;;;0.40;100.00;99172.69;4971216;28;19926;-61